Wetterdaten: Dezember 2010
Datum Temp Feuchte Luftdruck Regen Wind Richtung Sonnenschein UV Solar Windben
01.12.2010 -9,5 C 86 % 1007,8 hPa 0,0 l/m 10,9 km/h O-NO 2,07 h 0,6 UV-I 97 W/m 29,0 km/h
02.12.2010 -10,4 C 88 % 1009,5 hPa 0,0 l/m 1,1 km/h NO 0,17 h 0,0 UV-I 69 W/m 3,6 km/h
03.12.2010 -8,3 C 90 % 1012,8 hPa 0,0 l/m 1,7 km/h S-SW 0,25 h 0,0 UV-I 68 W/m 3,2 km/h
04.12.2010 -5,2 C 90 % 1015,0 hPa 0,0 l/m 15,3 km/h S 4,00 h 0,6 UV-I 114 W/m 26,5 km/h
05.12.2010 -0,2 C 98 % 1002,9 hPa 0,0 l/m 6,8 km/h S 0,00 h 0,0 UV-I 25 W/m 13,7 km/h
06.12.2010 -3,9 C 97 % 1002,4 hPa 0,0 l/m 0,0 km/h S 0,00 h 0,0 UV-I 28 W/m 0,0 km/h
07.12.2010 -3,3 C 97 % 1005,3 hPa 0,0 l/m 3,7 km/h NO 0,00 h 0,0 UV-I 20 W/m 10,4 km/h
08.12.2010 -3,2 C 96 % 1006,6 hPa 0,0 l/m 4,5 km/h N-NO 0,00 h 0,0 UV-I 14 W/m 12,1 km/h
09.12.2010 -0,9 C 97 % 1019,3 hPa 0,0 l/m 7,2 km/h NW 0,00 h 0,0 UV-I 8 W/m 19,7 km/h
10.12.2010 0,3 C 98 % 1025,1 hPa 0,0 l/m 8,6 km/h NW 0,00 h 0,0 UV-I 12 W/m 18,1 km/h
11.12.2010 3,1 C 99 % 1014,0 hPa 14,8 l/m 19,3 km/h W 0,00 h 0,0 UV-I 30 W/m 41,5 km/h
12.12.2010 -1,6 C 92 % 1016,7 hPa 3,8 l/m 10,5 km/h N-NW 0,00 h 0,0 UV-I 26 W/m 20,9 km/h
13.12.2010 -5,8 C 92 % 1022,8 hPa 0,0 l/m 1,5 km/h W 0,42 h 0,5 UV-I 70 W/m 6,0 km/h
14.12.2010 -4,8 C 93 % 1028,3 hPa 0,0 l/m 6,9 km/h N-NW 0,00 h 0,0 UV-I 11 W/m 15,3 km/h
15.12.2010 -6,0 C 94 % 1025,4 hPa 0,0 l/m 2,8 km/h N-NW 0,00 h 0,0 UV-I 13 W/m 7,6 km/h
16.12.2010 -5,1 C 96 % 1001,7 hPa 0,0 l/m 5,5 km/h S 0,00 h 0,0 UV-I 18 W/m 10,0 km/h
17.12.2010 -4,5 C 97 % 995,4 hPa 0,0 l/m 3,0 km/h S 0,00 h 0,0 UV-I 22 W/m 5,6 km/h
18.12.2010 -8,7 C 94 % 1000,7 hPa 0,0 l/m 3,9 km/h S 0,00 h 0,0 UV-I 24 W/m 5,6 km/h
19.12.2010 -3,7 C 97 % 993,2 hPa 0,0 l/m 9,9 km/h SO 0,00 h 0,0 UV-I 18 W/m 17,3 km/h
20.12.2010 -9,5 C 94 % 1005,9 hPa 0,0 l/m 2,7 km/h W-NW 0,00 h 0,0 UV-I 27 W/m 6,4 km/h
21.12.2010 -3,3 C 97 % 1006,7 hPa 0,0 l/m 1,8 km/h S-SO 0,00 h 0,0 UV-I 21 W/m 4,8 km/h
22.12.2010 -0,4 C 99 % 1003,5 hPa 0,2 l/m 0,8 km/h SO 0,00 h 0,0 UV-I 24 W/m 4,4 km/h
23.12.2010 -1,7 C 98 % 1001,3 hPa 0,4 l/m 5,5 km/h N-NO 0,00 h 0,0 UV-I 22 W/m 9,6 km/h
24.12.2010 -4,3 C 96 % 1008,4 hPa 0,0 l/m 9,8 km/h N-NO 0,00 h 0,0 UV-I 22 W/m 16,9 km/h
25.12.2010 -8,6 C 94 % 1023,4 hPa 0,0 l/m 2,9 km/h N-NW 0,17 h 0,0 UV-I 70 W/m 9,6 km/h
26.12.2010 -3,0 C 97 % 1023,6 hPa 0,0 l/m 1,1 km/h W 0,00 h 0,0 UV-I 28 W/m 5,6 km/h
27.12.2010 -1,9 C 99 % 1021,4 hPa 0,0 l/m 3,4 km/h NW 0,00 h 0,0 UV-I 18 W/m 9,3 km/h
28.12.2010 -4,3 C 96 % 1022,3 hPa 0,0 l/m 8,3 km/h S-SO 0,00 h 0,0 UV-I 41 W/m 14,5 km/h
29.12.2010 -7,5 C 95 % 1024,9 hPa 0,0 l/m 2,3 km/h S-SO 0,42 h 0,0 UV-I 57 W/m 5,2 km/h
30.12.2010 -3,4 C 97 % 1025,3 hPa 0,0 l/m 0,4 km/h S-SO 0,00 h 0,0 UV-I 30 W/m 2,0 km/h
31.12.2010 -0,6 C 99 % 1023,6 hPa 0,0 l/m 0,0 km/h W 0,00 h 0,0 UV-I 17 W/m 0,0 km/h
Min-Datum 21.12.10 02.12.10 20.12.10 4 Tage 02.12.10 - - - - 02.12.10
Min-Zeit 01:45 13:05 00:10 - 05:15 - - - - 05:15
Minimum -13,8 C 78 % 988,0 hPa - 0,0 km/h - - - - 0,0 km/h
Max-Datum 11.12.10 03.12.10 14.12.10 11.12.10 04.12.10 - 04.12.10 01.12.10 01.12.10 11.12.10
Max-Zeit 12:55 03:45 21:05 11:10 17:55 - 14:55 11:20 12:55 10:45
Maximum 3,5 C 100 % 1029,7 hPa 14,8 l/m 27,2 km/h
S
- 3,92 h 0,6 UV-I 255 W/m 51,5 km/h
W-NW
Durchschnitt -4,2 C 95 % 1012,7 hPa #19,2 l/m 5,2 km/h S #7:29 h 0,5 UV-I 34 W/m 11,4 km/h

Durchschnitt Minimum Temp.-7,1 C
Durchschnitt Maximum Temp.-2,0 C